CheckWX is a tool to help pilots better visualize weather data.  It is not intended as a substitute for an official pre-flight weather briefing.

21:35:36 UTC

KBVO TAF
Bartlesville Municipal Airport
Bartlesville, Oklahoma, USA
KBVO 201720Z 2018/2118 31007KT P6SM BKN040 TEMPO 2018/2022 BKN025 FM210000 VRB03KT P6SM SCT250

Mar-20@
18:00 UTC

Mar-20 @ 18:00 UTC

Mar-21@
00:00 UTC

Mar-21 @ 00:00 UTC

KBVO 201720Z 2018/2118 31007KT P6SM BKN040
Wind
  • 310° at 7 KTS
Cloud Levels
  • Broken at 4,000' AGL

Mar-20@
18:00 UTC

Mar-20 @ 18:00 UTC

Mar-20@
22:00 UTC

Mar-20 @ 22:00 UTC

TEMPO 2018/2022 BKN025

Temporary

Temporary Changes expected for less than half the time period

Cloud Levels
  • Broken at 2,500' AGL

Mar-21@
00:00 UTC

Mar-21 @ 00:00 UTC

Mar-21@
18:00 UTC

Mar-21 @ 18:00 UTC

FM210000 VRB03KT P6SM SCT250

From

From Standard forecast or significant change

Wind
  • Variable at 3 KTS
Cloud Levels
  • Scattered at 25,000' AGL